Weather observations for the past three days for
Abbeville Chris Crusta Memorial Airport
| Date | Time (cdt) | Wind (mph) | Vis. (mi.) | Weather | Sky Cond. | Temperature (ºF) | Relative Humidity | Wind Chill (°F) | Heat Index (°F) | Pressure | Precipitation (in) | ||||||
|---|---|---|---|---|---|---|---|---|---|---|---|---|---|---|---|---|---|
| Air | Dwpt | 6 hour | altimeter (in) | sea level (mb) | 1 hr | 3 hr | 6 hr | ||||||||||
| Max. | Min. | ||||||||||||||||
| 08 | 04:15 | Vrbl 5 | 10.00 | Overcast | OVC011 | 66.6 | 65.3 | 96% | 29.9 | 0.0 | |||||||
| 08 | 03:55 | NE 5 | 10.00 | Overcast | OVC015 | 66.4 | 64.9 | 95% | 29.91 | 0.0 | |||||||
| 08 | 03:35 | NE 5 | 10.00 | Overcast | OVC017 | 66.4 | 65.1 | 96% | 29.91 | 0.0 | |||||||
| 08 | 03:15 | NE 5 | 10.00 | Overcast | OVC018 | 66.4 | 64.8 | 95% | 29.9 | 0.0 | |||||||
| 08 | 02:55 | E 5 | 10.00 | Overcast | OVC017 | 66.2 | 64.8 | 95% | 29.9 | 0.0 | |||||||
| 08 | 02:35 | Vrbl 6 | 10.00 | Overcast | OVC018 | 66.2 | 64.8 | 95% | 29.89 | 0.0 | |||||||
| 08 | 02:15 | NE 5 | 10.00 | Overcast | OVC018 | 66.2 | 64.8 | 95% | 29.92 | 0.0 | |||||||
| 08 | 01:55 | NE 5 | 10.00 | Overcast | OVC019 | 66 | 64.6 | 95% | 29.93 | 0.0 | |||||||
| 08 | 01:35 | NE 7 | 10.00 | Overcast | OVC019 | 66 | 64.6 | 95% | 29.93 | 0.0 | |||||||
| 08 | 01:15 | NE 6 | 10.00 | Overcast | OVC018 | 66 | 64.6 | 95% | 29.94 | 0.0 | |||||||
| 08 | 00:55 | NE 6 | 10.00 | Overcast | OVC020 | 66.2 | 64.8 | 73.2 | 65.3 | 95% | 29.95 | 0.0 | |||||
| 08 | 00:35 | N 5 | 10.00 | Overcast | OVC019 | 66.2 | 64.8 | 95% | 29.96 | 0.0 | |||||||
| 08 | 00:15 | NE 5 | 10.00 | Overcast | OVC021 | 66.2 | 64.8 | 95% | 29.95 | 0.0 | |||||||
| 07 | 23:55 | NE 5 | 10.00 | Overcast | OVC021 | 66.2 | 64.6 | 95% | 29.96 | 0.0 | |||||||
| 07 | 23:35 | NE 5 | 10.00 | Overcast | OVC019 | 66 | 64.6 | 95% | 29.96 | 0.0 | |||||||
| 07 | 23:15 | NE 7 | 10.00 | Overcast | OVC017 | 66 | 64.6 | 95% | 29.96 | 0.0 | |||||||
| 07 | 22:55 | E 6 | 10.00 | Mostly Cloudy | BKN018 | 65.7 | 64.4 | 96% | 29.95 | 0.0 | |||||||
| 07 | 22:35 | NE 3 | 10.00 | A Few Clouds | FEW020 | 65.3 | 64.4 | 97% | 29.96 | 0.0 | |||||||
| 07 | 22:15 | NE 6 | 10.00 | A Few Clouds | FEW200 | 66 | 64.2 | 94% | 29.96 | 0.0 | |||||||
| 07 | 21:55 | NE 3 | 10.00 | Fair | CLR | 66.2 | 64.2 | 93% | 29.96 | 0.0 | |||||||
| 07 | 21:35 | NE 6 | 10.00 | Fair | CLR | 66.6 | 63.9 | 91% | 29.95 | 0.0 | |||||||
| 07 | 21:15 | NE 6 | 10.00 | Fair | CLR | 66.9 | 64.4 | 92% | 29.95 | 0.0 | |||||||
| 07 | 20:55 | NE 7 | 10.00 | A Few Clouds | FEW260 | 67.8 | 64.4 | 89% | 29.94 | 0.0 | |||||||
| 07 | 20:35 | NE 6 | 10.00 | A Few Clouds | FEW260 | 68.2 | 64.4 | 88% | 29.93 | 0.0 | |||||||
| 07 | 20:15 | NE 8 | 10.00 | Fair | CLR | 68.7 | 64.6 | 87% | 29.93 | 0.0 | |||||||
| 07 | 19:55 | NE 9 | 10.00 | Partly Cloudy | SCT170 | 70.2 | 65.1 | 84% | 29.92 | 0.0 | |||||||
| 07 | 19:35 | N 8 | 10.00 | A Few Clouds | FEW060 | 71.1 | 65.7 | 83% | 29.93 | 0.0 | |||||||
| 07 | 19:15 | NE 9 | 10.00 | Overcast | OVC060 | 72.5 | 66 | 80% | 29.92 | 0.0 | |||||||
| 07 | 18:55 | NE 7 | 10.00 | Mostly Cloudy | BKN060 | 73.6 | 66.4 | 78.1 | 73.2 | 78% | 29.92 | 0.0 | |||||
| 07 | 18:35 | NE 7 | 10.00 | Mostly Cloudy | BKN060 | 74.3 | 66.7 | 77% | 29.92 | 0.0 | |||||||
| 07 | 18:15 | NE 10 | 10.00 | Partly Cloudy | SCT044 SCT055 | 74.3 | 66.4 | 76% | 29.91 | 0.0 | |||||||
| 07 | 17:55 | N 10 | 10.00 | Overcast | OVC044 | 75 | 66.6 | 75% | 76 | 29.92 | 0.0 | ||||||
| 07 | 17:35 | NE 10 | 10.00 | Overcast | OVC043 | 75.4 | 66.9 | 75% | 77 | 29.92 | 0.0 | ||||||
| 07 | 17:15 | NE 7 | 10.00 | Overcast | BKN028 OVC044 | 76.3 | 67.3 | 74% | 78 | 29.92 | 0.0 | ||||||
| 07 | 16:55 | N 10 | 10.00 | Partly Cloudy | SCT028 | 76.6 | 67.3 | 73% | 78 | 29.92 | 0.0 | ||||||
| 07 | 16:35 | N 9 | 10.00 | Fair | CLR | 77.4 | 67.5 | 72% | 79 | 29.92 | 0.0 | ||||||
| 07 | 15:15 | N 9 | 10.00 | Partly Cloudy | SCT210 | 77.4 | 68.7 | 75% | 79 | 29.92 | 0.0 | ||||||
| 07 | 14:55 | NE 8 | 10.00 | Partly Cloudy | SCT220 SCT380 | 76.6 | 68.4 | 76% | 78 | 29.93 | 0.0 | ||||||
| 07 | 14:35 | NE 7 | 10.00 | A Few Clouds | FEW300 | 77.5 | 69.1 | 75% | 79 | 29.93 | 0.0 | ||||||
| 07 | 14:15 | N 9 | 10.00 | Partly Cloudy | FEW032 SCT310 | 75.7 | 67.6 | 76% | 77 | 29.93 | 0.0 | ||||||
| 07 | 13:55 | N 9 | 10.00 | Partly Cloudy | FEW021 SCT028 | 74.7 | 67.3 | 78% | 29.94 | 0.0 | |||||||
| 07 | 13:35 | N 7 | 10.00 | Partly Cloudy | FEW021 SCT030 | 73.6 | 66.7 | 79% | 29.95 | 0.0 | |||||||
| 07 | 13:15 | NE 7 | 10.00 | Partly Cloudy | FEW018 SCT290 SCT360 | 74.3 | 67.5 | 79% | 29.96 | 0.0 | |||||||
| 07 | 12:55 | N 6 | 10.00 | Fair | CLR | 72.3 | 66.6 | 72.3 | 61.5 | 82% | 29.95 | 0.0 | |||||
| 07 | 12:35 | NE 6 | 10.00 | Partly Cloudy | SCT015 | 72 | 66.4 | 83% | 29.95 | 0.0 | |||||||
| 07 | 12:15 | NE 9 | 10.00 | Overcast | OVC014 | 71.4 | 66.2 | 84% | 29.96 | 0.0 | |||||||
| 07 | 11:55 | NE 7 | 10.00 | Partly Cloudy | SCT013 SCT250 SCT380 | 71.1 | 66.4 | 85% | 29.96 | 0.0 | |||||||
| 07 | 11:35 | NE 7 | 10.00 | Partly Cloudy | SCT013 SCT310 SCT340 | 71.2 | 67.1 | 87% | 29.96 | 0.0 | |||||||
| 07 | 11:15 | NE 7 | 10.00 | Partly Cloudy | FEW010 SCT025 SCT340 | 67.3 | 64.9 | 92% | 29.96 | 0.0 | |||||||
| 07 | 10:55 | N 10 | 10.00 | Overcast | BKN009 BKN013 OVC024 | 65.3 | 64.6 | 98% | 29.97 | 0.0 | |||||||
| 07 | 10:35 | N 9 | 10.00 | Overcast | BKN009 OVC013 | 64.6 | 64 | 98% | 29.98 | 0.0 | |||||||
| 07 | 10:15 | NE 7 | 10.00 | Overcast | BKN007 OVC012 | 63.3 | 63.3 | 100% | 29.98 | 0.0 | |||||||
| 07 | 09:55 | NE 7 | 10.00 | Overcast | OVC007 | 63.5 | 63.5 | 100% | 29.97 | 0.0 | |||||||
| 07 | 09:35 | NE 8 | 10.00 | Overcast | BKN006 OVC012 | 63 | 63 | 100% | 29.97 | 0.0 | |||||||
| 07 | 09:15 | NE 7 | 10.00 | Overcast | OVC006 | 62.6 | 62.6 | 100% | 29.97 | 0.0 | |||||||
| 07 | 08:55 | NE 6 | 10.00 | Overcast | OVC004 | 61.7 | 61.7 | 100% | 29.96 | 0.0 | |||||||
| 07 | 08:35 | N 7 | 10.00 | Overcast | OVC004 | 61.7 | 61.7 | 100% | 29.97 | 0.0 | |||||||
| 07 | 08:15 | N 8 | 10.00 | Overcast | OVC005 | 61.7 | 61.7 | 100% | 29.97 | 0.0 | |||||||
| 07 | 07:55 | N 8 | 10.00 | Overcast | OVC004 | 61.5 | 61.5 | 100% | 29.95 | 0.0 | |||||||
| 07 | 07:35 | N 7 | 9.00 | Overcast | OVC004 | 61.7 | 61.7 | 100% | 29.95 | 0.0 | |||||||
| 07 | 07:15 | N 8 | 10.00 | Overcast | OVC005 | 61.7 | 61.7 | 100% | 29.95 | 0.0 | |||||||
| 07 | 06:55 | N 9 | 9.00 | Overcast | OVC004 | 62.1 | 62.1 | 77.9 | 62.1 | 100% | 29.94 | 0.0 | |||||
| 07 | 06:35 | N 12 | 4.00 | Fog/Mist | OVC003 | 62.4 | 62.4 | 100% | 29.93 | 0.0 | |||||||
| 07 | 06:15 | NE 8 | 5.00 | Light Rain Fog/Mist | OVC004 | 62.8 | 62.8 | 100% | 29.91 | 0.0 | |||||||
| 07 | 05:55 | N 10 | 4.00 | Light Rain Fog/Mist | OVC005 | 63.7 | 63.7 | 100% | 29.91 | 0.0 | |||||||
| 07 | 05:35 | N 10 | 3.00 | Light Rain Fog/Mist | OVC004 | 64.6 | 64.6 | 100% | 29.91 | 0.0 | |||||||
| 07 | 05:15 | N 12 | 2.50 | Light Rain Fog/Mist | OVC004 | 65.1 | 65.1 | 100% | 29.89 | 0.0 | |||||||
| 07 | 04:55 | N 10 | 4.00 | Fog/Mist | BKN004 OVC012 | 66.4 | 66.4 | 100% | 29.88 | 0.0 | |||||||
| 07 | 04:35 | N 8 | 4.00 | Fog/Mist | BKN004 OVC012 | 66.9 | 66.9 | 100% | 29.87 | 0.0 | |||||||
| 07 | 04:15 | N 6 | 2.50 | Light Rain Fog/Mist | OVC004 | 66.7 | 66.7 | 100% | 29.87 | 0.0 | |||||||
| 07 | 03:55 | N 8 | 2.00 | Light Rain Fog/Mist | BKN005 OVC012 | 69.3 | 69.3 | 100% | 29.86 | 0.0 | |||||||
| 07 | 03:35 | N 13 | 5.00 | Light Rain Fog/Mist | OVC006 | 73.9 | 73.9 | 100% | 29.85 | 0.0 | |||||||
| 07 | 03:15 | SW 7 | 7.00 | Overcast | OVC007 | 77.2 | 77.2 | 100% | 78 | 29.84 | 0.0 | ||||||
| 07 | 02:55 | SW 8 | 7.00 | Overcast | OVC007 | 77.2 | 77.2 | 100% | 78 | 29.85 | 0.0 | ||||||
| 07 | 02:35 | SW 7 | 8.00 | Overcast | OVC007 | 77.4 | 77.4 | 100% | 79 | 29.85 | 0.0 | ||||||
| 07 | 02:15 | SW 6 | 9.00 | Overcast | OVC008 | 77.7 | 77.7 | 100% | 80 | 29.85 | 0.0 | ||||||
| 07 | 01:55 | SW 7 | 9.00 | Overcast | OVC008 | 77.7 | 77.7 | 100% | 80 | 29.86 | 0.0 | ||||||
| 07 | 01:35 | SW 6 | 8.00 | Overcast | OVC008 | 77.9 | 77.9 | 100% | 80 | 29.86 | 0.0 | ||||||
| 07 | 01:15 | SW 8 | 9.00 | Overcast | OVC008 | 77.9 | 77.9 | 100% | 80 | 29.87 | 0.0 | ||||||
| 07 | 00:55 | SW 7 | 9.00 | Overcast | OVC008 | 77.9 | 77.9 | 79.7 | 77.7 | 100% | 80 | 29.86 | 0.0 | ||||
| 07 | 00:35 | SW 6 | 9.00 | Overcast | OVC008 | 77.9 | 77.9 | 100% | 80 | 29.86 | 0.0 | ||||||
| 07 | 00:15 | SW 7 | 9.00 | Overcast | OVC008 | 77.9 | 77.9 | 100% | 80 | 29.86 | 0.0 | ||||||
| 06 | 23:55 | SW 7 | 9.00 | Overcast | OVC009 | 77.9 | 77.9 | 100% | 80 | 29.86 | 0.0 | ||||||
| 06 | 23:35 | S 9 | 9.00 | Overcast | OVC009 | 77.9 | 77.9 | 100% | 80 | 29.86 | 0.0 | ||||||
| 06 | 23:15 | SW 6 | 9.00 | Overcast | OVC009 | 78.1 | 78.1 | 100% | 81 | 29.86 | 0.0 | ||||||
| 06 | 22:55 | SW 8 | 9.00 | Overcast | OVC008 | 77.9 | 77.9 | 100% | 80 | 29.86 | 0.0 | ||||||
| 06 | 22:35 | S 10 | 9.00 | Overcast | OVC008 | 77.9 | 77.9 | 100% | 80 | 29.86 | 0.0 | ||||||
| 06 | 22:15 | S 8 | 9.00 | Overcast | OVC008 | 77.9 | 77.9 | 100% | 80 | 29.85 | 0.0 | ||||||
| 06 | 21:55 | S 10 | 9.00 | Overcast | OVC008 | 77.7 | 77.7 | 100% | 80 | 29.84 | 0.0 | ||||||
| 06 | 21:35 | S 9 | 9.00 | Overcast | OVC008 | 77.7 | 77.7 | 100% | 80 | 29.84 | 0.0 | ||||||
| 06 | 21:15 | S 9 | 8.00 | Overcast | OVC008 | 77.7 | 77.7 | 100% | 80 | 29.83 | 0.0 | ||||||
| 06 | 20:55 | S 12 | 9.00 | Partly Cloudy | FEW009 SCT021 | 77.9 | 77.9 | 100% | 80 | 29.82 | 0.0 | ||||||
| 06 | 20:35 | S 12 | 9.00 | Mostly Cloudy | FEW009 BKN021 | 78.3 | 78.3 | 100% | 81 | 29.82 | 0.0 | ||||||
| 06 | 20:15 | S 13 | 9.00 | Mostly Cloudy | FEW010 BKN021 | 78.4 | 78.1 | 99% | 82 | 29.82 | 0.0 | ||||||
| 06 | 19:55 | S 13 | 9.00 | A Few Clouds | FEW010 | 78.6 | 77.9 | 98% | 82 | 29.81 | 0.0 | ||||||
| 06 | 19:35 | S 14 | 9.00 | A Few Clouds | FEW010 | 79 | 77.7 | 96% | 83 | 29.81 | 0.0 | ||||||
| 06 | 19:15 | S 15 | 9.00 | A Few Clouds | FEW012 | 79.2 | 77.7 | 95% | 84 | 29.8 | 0.0 | ||||||
| 06 | 18:55 | S 14 | 9.00 | Mostly Cloudy | BKN012 | 79.9 | 77.9 | 85.1 | 79.9 | 94% | 86 | 29.81 | 0.0 | ||||
| 06 | 18:35 | S 14 | 9.00 | Overcast | OVC012 | 80.1 | 77.9 | 93% | 86 | 29.81 | 0.0 | ||||||
| 06 | 18:15 | S 14 | 10.00 | Mostly Cloudy | BKN014 | 80.8 | 77.9 | 91% | 88 | 29.81 | 0.0 | ||||||
| 06 | 17:55 | S 13 | 9.00 | Overcast | BKN015 OVC023 | 81 | 77.7 | 90% | 88 | 29.81 | 0.0 | ||||||
| 06 | 17:35 | S 12 | 10.00 | Overcast | BKN014 OVC024 | 80.8 | 77.9 | 91% | 88 | 29.81 | 0.0 | ||||||
| 06 | 17:15 | S 13 | 10.00 | Overcast | BKN014 OVC023 | 81 | 78.1 | 91% | 89 | 29.81 | 0.0 | ||||||
| 06 | 16:55 | S 9 | 10.00 | Mostly Cloudy | BKN015 BKN023 | 81 | 78.3 | 92% | 89 | 29.81 | 0.0 | ||||||
| 06 | 16:35 | S 10 | 9.00 | Overcast | BKN015 OVC023 | 80.8 | 77.9 | 91% | 88 | 29.81 | 0.0 | ||||||
| 06 | 16:15 | S 12 | 6.00 | Fog/Mist | BKN012 BKN019 OVC024 | 80.6 | 78.3 | 93% | 88 | 29.82 | 0.0 | ||||||
| 06 | 15:55 | SE 12 | 10.00 | Mostly Cloudy | BKN017 BKN025 | 80.8 | 78.1 | 92% | 88 | 29.82 | 0.0 | ||||||
| 06 | 15:35 | S 12 | 10.00 | Mostly Cloudy | FEW013 SCT020 BKN026 | 81.1 | 78.1 | 90% | 89 | 29.82 | 0.0 | ||||||
| 06 | 15:15 | SE 13 | 10.00 | Partly Cloudy | FEW012 SCT025 | 82 | 78.3 | 88% | 91 | 29.83 | 0.0 | ||||||
| 06 | 14:55 | S 12 | 10.00 | Partly Cloudy | FEW021 SCT027 | 81.9 | 78.3 | 89% | 91 | 29.84 | 0.0 | ||||||
| 06 | 14:35 | S 9 | 10.00 | Mostly Cloudy | SCT016 BKN023 BKN028 | 82 | 77.7 | 87% | 91 | 29.85 | 0.0 | ||||||
| 06 | 14:15 | S 8 | 10.00 | Mostly Cloudy | BKN016 BKN023 | 82.4 | 77.9 | 86% | 92 | 29.86 | 0.0 | ||||||
| 06 | 13:55 | S 10 | 10.00 | Mostly Cloudy | BKN018 | 83.8 | 78.1 | 83% | 95 | 29.86 | 0.0 | ||||||
| 06 | 13:35 | S 12 G 17 | 10.00 | Partly Cloudy | SCT019 | 85.1 | 78.3 | 80% | 97 | 29.87 | 0.0 | ||||||
| 06 | 13:15 | S 13 | 10.00 | Partly Cloudy | FEW020 SCT290 SCT360 | 84 | 77.2 | 80% | 94 | 29.88 | 0.0 | ||||||
| 06 | 12:55 | S 9 | 10.00 | Partly Cloudy | SCT020 | 83.7 | 77.5 | 83.7 | 75.4 | 82% | 94 | 29.89 | 0.0 | ||||
| 06 | 12:35 | S 12 | 10.00 | Mostly Cloudy | SCT019 BKN027 | 82.6 | 77 | 83% | 91 | 29.89 | 0.0 | ||||||
| 06 | 12:15 | S 12 | 10.00 | Mostly Cloudy | SCT019 BKN027 | 83.1 | 77.2 | 82% | 92 | 29.89 | 0.0 | ||||||
| 06 | 11:55 | S 10 | 10.00 | Mostly Cloudy | SCT018 SCT023 BKN030 | 82.4 | 77 | 84% | 91 | 29.9 | 0.0 | ||||||
| 06 | 11:35 | S 10 | 10.00 | Mostly Cloudy | SCT020 BKN041 | 81.9 | 76.5 | 84% | 89 | 29.9 | 0.0 | ||||||
| 06 | 11:15 | S 12 | 10.00 | Partly Cloudy | FEW018 SCT042 SCT370 | 81.5 | 76.6 | 85% | 89 | 29.9 | 0.0 | ||||||
| 06 | 10:55 | S 8 | 10.00 | Mostly Cloudy | FEW017 BKN042 | 81.5 | 77 | 86% | 89 | 29.89 | 0.0 | ||||||
| 06 | 10:35 | S 13 G 17 | 10.00 | Mostly Cloudy | FEW015 BKN041 | 80.8 | 77.4 | 89% | 88 | 29.88 | 0.0 | ||||||
| 06 | 10:15 | S 10 | 10.00 | Overcast | FEW017 SCT031 OVC039 | 80.1 | 77.9 | 93% | 86 | 29.88 | 0.0 | ||||||
| 06 | 09:55 | S 9 | 8.00 | Overcast | BKN027 OVC033 | 78.1 | 77.5 | 98% | 81 | 29.88 | 0.0 | ||||||
| 06 | 09:35 | S 7 | 9.00 | Overcast | BKN023 OVC032 | 77.7 | 77.4 | 99% | 80 | 29.88 | 0.0 | ||||||
| 06 | 09:15 | S 10 | 9.00 | Mostly Cloudy | SCT024 BKN033 | 77.5 | 77.5 | 100% | 79 | 29.88 | 0.0 | ||||||
| 06 | 08:55 | S 12 | 9.00 | Partly Cloudy | SCT009 SCT025 | 77.2 | 77.2 | 100% | 78 | 29.87 | 0.0 | ||||||
| 06 | 08:35 | S 10 | 9.00 | Partly Cloudy | FEW009 SCT043 | 77.2 | 77.2 | 100% | 78 | 29.87 | 0.0 | ||||||
| 06 | 08:15 | S 10 | 9.00 | Partly Cloudy | SCT043 | 77 | 77 | 100% | 78 | 29.86 | 0.0 | ||||||
| 06 | 07:55 | S 10 | 9.00 | A Few Clouds | FEW007 | 76.3 | 76.3 | 100% | 76 | 29.86 | 0.0 | ||||||
| 06 | 07:35 | S 10 | 9.00 | Partly Cloudy | FEW007 SCT045 | 76.1 | 76.1 | 100% | 75 | 29.85 | 0.0 | ||||||
| 06 | 07:15 | S 13 | 9.00 | A Few Clouds | FEW049 | 75.9 | 75.9 | 100% | 75 | 29.85 | 0.0 | ||||||
| 06 | 06:55 | S 10 | 9.00 | A Few Clouds | FEW050 | 75 | 75 | 75 | 73.9 | 100% | 72 | 29.84 | 0.0 | ||||
| 06 | 06:35 | S 9 | 9.00 | Mostly Cloudy | SCT006 BKN050 | 74.7 | 74.7 | 100% | 29.84 | 0.0 | |||||||
| 06 | 06:15 | S 9 | 9.00 | Overcast | OVC006 | 74.7 | 74.7 | 100% | 29.83 | 0.0 | |||||||
| 06 | 05:55 | S 7 | 10.00 | Overcast | BKN007 OVC050 | 74.5 | 74.5 | 100% | 29.83 | 0.0 | |||||||
| 06 | 05:35 | S 7 | 10.00 | Mostly Cloudy | SCT007 BKN050 | 74.5 | 74.5 | 100% | 29.84 | 0.0 | |||||||
| 06 | 05:15 | S 6 | 10.00 | Mostly Cloudy | BKN008 BKN050 | 74.5 | 74.5 | 100% | 29.84 | 0.0 | |||||||
| 06 | 04:55 | S 6 | 10.00 | Overcast | OVC009 | 74.7 | 74.7 | 100% | 29.84 | 0.0 | |||||||
| 06 | 04:35 | S 5 | 10.00 | Overcast | OVC010 | 74.7 | 74.7 | 100% | 29.84 | 0.0 | |||||||
| 06 | 04:15 | S 5 | 10.00 | Overcast | OVC011 | 74.5 | 74.5 | 100% | 29.84 | 0.0 | |||||||
| 06 | 03:55 | SE 5 | 10.00 | Overcast | OVC010 | 74.7 | 74.7 | 100% | 29.84 | 0.0 | |||||||
| 06 | 03:35 | SE 6 | 10.00 | Overcast | BKN009 OVC015 | 74.7 | 74.7 | 100% | 29.84 | 0.0 | |||||||
| 06 | 03:15 | S 6 | 10.00 | Overcast | BKN012 OVC021 | 74.5 | 74.5 | 100% | 29.84 | 0.0 | |||||||
| 06 | 02:55 | S 6 | 10.00 | Overcast | OVC011 | 74.5 | 74.5 | 100% | 29.85 | 0.0 | |||||||
| 06 | 02:35 | S 6 | 10.00 | Overcast | OVC011 | 74.3 | 74.3 | 100% | 29.84 | 0.0 | |||||||
| 06 | 02:15 | S 6 | 10.00 | Overcast | BKN011 BKN021 OVC039 | 74.1 | 74.1 | 100% | 29.84 | 0.0 | |||||||
| 06 | 01:55 | S 6 | 10.00 | Mostly Cloudy | SCT009 BKN020 BKN039 | 73.9 | 73.9 | 100% | 29.84 | 0.0 | |||||||
| 06 | 01:35 | S 7 | 9.00 | Overcast | BKN010 OVC019 | 74.1 | 74.1 | 100% | 29.84 | 0.0 | |||||||
| 06 | 00:55 | S 7 | 10.00 | Overcast | SCT013 OVC025 | 74.1 | 74.1 | 76.8 | 73.6 | 100% | 29.85 | 0.0 | |||||
| 06 | 00:35 | S 9 | 10.00 | Mostly Cloudy | SCT015 BKN023 | 73.8 | 73.8 | 100% | 29.85 | 0.0 | |||||||
| 06 | 00:15 | S 10 | 10.00 | Mostly Cloudy | BKN015 | 73.6 | 73.6 | 100% | 29.85 | 0.0 | |||||||
| 05 | 23:55 | S 10 | 10.00 | Mostly Cloudy | BKN015 BKN022 | 73.9 | 73.9 | 100% | 29.85 | 0.0 | |||||||
| 05 | 23:35 | S 10 | 10.00 | Mostly Cloudy | BKN015 BKN021 | 73.9 | 73.9 | 100% | 29.85 | 0.0 | |||||||
| 05 | 23:15 | S 8 | 10.00 | Overcast | BKN015 OVC022 | 74.1 | 74.1 | 100% | 29.85 | 0.0 | |||||||
| 05 | 22:55 | S 12 | 10.00 | Mostly Cloudy | BKN014 BKN022 | 74.3 | 74.3 | 100% | 29.85 | 0.0 | |||||||
| 05 | 22:35 | S 9 | 10.00 | Mostly Cloudy | BKN013 BKN021 | 74.3 | 74.1 | 99% | 29.85 | 0.0 | |||||||
| 05 | 22:15 | S 9 | 10.00 | Partly Cloudy | SCT013 | 73.9 | 73.9 | 100% | 29.85 | 0.0 | |||||||
| 05 | 21:55 | S 10 | 10.00 | Mostly Cloudy | BKN012 | 74.1 | 74.1 | 100% | 29.84 | 0.0 | |||||||
| 05 | 21:35 | S 12 | 9.00 | Overcast | OVC011 | 74.3 | 74.3 | 100% | 29.83 | 0.0 | |||||||
| 05 | 21:15 | S 9 | 9.00 | Mostly Cloudy | BKN011 | 74.3 | 74.3 | 100% | 29.83 | 0.0 | |||||||
| 05 | 20:55 | S 6 | 9.00 | Fair | CLR | 73.9 | 73.4 | 98% | 29.82 | 0.0 | |||||||
| 05 | 20:35 | S 7 | 10.00 | Fair | CLR | 74.1 | 73.2 | 97% | 29.82 | 0.0 | |||||||
| 05 | 20:15 | S 7 | 10.00 | Fair | CLR | 74.7 | 73 | 95% | 29.81 | 0.0 | |||||||
| 05 | 19:55 | S 9 | 10.00 | Fair | CLR | 75.2 | 73 | 93% | 74 | 29.82 | 0.0 | ||||||
| 05 | 19:35 | S 10 | 10.00 | Fair | CLR | 75.6 | 72.9 | 91% | 75 | 29.81 | 0.0 | ||||||
| 05 | 19:15 | S 9 | 9.00 | Fair | CLR | 76.5 | 72.9 | 89% | 77 | 29.81 | 0.0 | ||||||
| 05 | 18:55 | S 12 G 21 | 10.00 | Partly Cloudy | SCT018 | 77 | 73.2 | 81.7 | 77 | 88% | 78 | 29.81 | 0.0 | ||||
| 05 | 18:35 | S 13 G 20 | 9.00 | Overcast | BKN020 OVC029 | 77.9 | 73.4 | 86% | 80 | 29.81 | 0.0 | ||||||
| 05 | 18:15 | S 14 G 21 | 10.00 | Overcast | BKN016 BKN022 BKN031 OVC060 | 78.3 | 73.6 | 86% | 81 | 29.82 | 0.0 | ||||||
| 05 | 17:55 | S 12 | 9.00 | Overcast | BKN016 BKN024 OVC060 | 77.9 | 73.6 | 87% | 80 | 29.82 | 0.0 | ||||||
| 05 | 17:35 | S 15 | 9.00 | Overcast | SCT017 BKN025 BKN039 OVC065 | 78.3 | 73.4 | 85% | 81 | 29.82 | 0.0 | ||||||
| 05 | 17:15 | S 12 | 10.00 | Overcast | SCT017 BKN025 BKN035 OVC042 | 79 | 73.6 | 84% | 82 | 29.83 | 0.0 | ||||||
| 05 | 16:55 | S 14 G 21 | 10.00 | Mostly Cloudy | SCT017 SCT027 BKN035 | 79.2 | 74.1 | 85% | 83 | 29.83 | 0.0 | ||||||
| 05 | 16:35 | S 16 | 10.00 | Mostly Cloudy | FEW019 SCT025 BKN036 BKN065 | 79.5 | 74.3 | 84% | 84 | 29.83 | 0.0 | ||||||
| 05 | 16:15 | S 17 G 22 | 10.00 | Mostly Cloudy | FEW018 SCT024 BKN036 BKN065 | 79.3 | 73.6 | 83% | 83 | 29.84 | 0.0 | ||||||
| 05 | 15:55 | S 17 | 10.00 | Mostly Cloudy | FEW021 SCT027 BKN038 | 80.1 | 73.8 | 81% | 85 | 29.84 | 0.0 | ||||||
| 05 | 15:35 | S 15 | 10.00 | Mostly Cloudy | FEW027 BKN039 | 80.6 | 73.8 | 80% | 85 | 29.84 | 0.0 | ||||||
| 05 | 15:15 | S 14 | 10.00 | Mostly Cloudy | BKN037 | 81.5 | 73.9 | 78% | 87 | 29.85 | 0.0 | ||||||
| 05 | 14:55 | S 14 | 10.00 | Overcast | FEW023 BKN035 OVC043 | 79.5 | 72.9 | 80% | 83 | 29.85 | 0.0 | ||||||
| 05 | 14:35 | S 15 | 10.00 | Mostly Cloudy | SCT023 BKN038 | 79.3 | 72.5 | 80% | 83 | 29.86 | 0.0 | ||||||
| 05 | 14:15 | S 13 | 10.00 | Overcast | SCT025 OVC035 | 79.3 | 72.5 | 80% | 83 | 29.86 | 0.0 | ||||||
| 05 | 13:55 | S 15 | 10.00 | Mostly Cloudy | SCT023 BKN029 BKN035 | 79.9 | 72.5 | 78% | 84 | 29.86 | 0.0 | ||||||
| 05 | 13:35 | S 13 | 10.00 | Overcast | FEW023 BKN033 OVC350 | 79.9 | 72.7 | 79% | 84 | 29.86 | 0.0 | ||||||
| 05 | 13:15 | S 16 | 10.00 | Overcast | SCT023 BKN032 OVC039 | 80.6 | 72.7 | 77% | 85 | 29.86 | 0.0 | ||||||
| 05 | 12:55 | S 15 | 10.00 | Mostly Cloudy | SCT026 BKN033 | 80.2 | 72 | 82.2 | 66.4 | 76% | 84 | 29.86 | 0.0 | ||||
| 05 | 12:35 | S 16 | 10.00 | Mostly Cloudy | SCT026 BKN031 | 81.1 | 72.7 | 76% | 86 | 29.86 | 0.0 | ||||||
| 05 | 12:15 | S 16 | 10.00 | Mostly Cloudy | SCT024 BKN032 BKN340 | 81.5 | 72.3 | 74% | 86 | 29.86 | 0.0 | ||||||
| 05 | 11:55 | S 12 | 10.00 | Overcast | BKN022 OVC031 | 79 | 71.8 | 79% | 82 | 29.87 | 0.0 | ||||||
| 05 | 11:35 | S 14 | 10.00 | Overcast | BKN022 OVC032 | 78.3 | 71.4 | 80% | 81 | 29.88 | 0.0 | ||||||
| 05 | 11:15 | S 14 G 20 | 10.00 | Overcast | SCT025 OVC033 | 79 | 71.4 | 78% | 82 | 29.88 | 0.0 | ||||||
| 05 | 10:55 | S 13 | 10.00 | Overcast | BKN026 OVC033 | 78.1 | 70.9 | 79% | 80 | 29.88 | 0.0 | ||||||
| 05 | 10:35 | S 12 | 10.00 | Overcast | BKN025 OVC032 | 77 | 70.2 | 80% | 79 | 29.88 | 0.0 | ||||||
| 05 | 10:15 | S 13 | 10.00 | Overcast | BKN023 OVC032 | 78.1 | 69.8 | 76% | 80 | 29.88 | 0.0 | ||||||
| 05 | 09:55 | S 13 | 10.00 | Mostly Cloudy | BKN024 BKN032 | 79 | 70.5 | 75% | 82 | 29.87 | 0.0 | ||||||
| 05 | 09:35 | S 15 | 10.00 | Overcast | BKN022 OVC030 | 76.6 | 69.3 | 78% | 78 | 29.88 | 0.0 | ||||||
| 05 | 09:15 | S 9 | 10.00 | Mostly Cloudy | SCT021 BKN030 | 76.8 | 69.8 | 79% | 78 | 29.87 | 0.0 | ||||||
| 05 | 08:55 | S 14 | 10.00 | Fair | CLR | 75.7 | 70.2 | 83% | 76 | 29.87 | 0.0 | ||||||
| 05 | 08:35 | S 13 | 10.00 | Fair | CLR | 74.3 | 70.3 | 88% | 29.87 | 0.0 | |||||||
| 05 | 08:15 | S 8 | 10.00 | Fair | CLR | 72.7 | 70.9 | 94% | 29.87 | 0.0 | |||||||
| 05 | 07:55 | S 5 | 10.00 | Fair | CLR | 70.2 | 70.2 | 100% | 29.87 | 0.0 | |||||||
| 05 | 07:35 | S 5 | 9.00 | Fair | CLR | 68.5 | 68.5 | 100% | 29.86 | 0.0 | |||||||
| 05 | 07:15 | S 6 | 10.00 | Fair | CLR | 67.1 | 67.1 | 100% | 29.86 | 0.0 | |||||||
| 05 | 06:55 | S 6 | 10.00 | Fair | CLR | 65.8 | 65.8 | 65.8 | 60.6 | 100% | 29.85 | 0.0 | |||||
| 05 | 06:35 | S 5 | 10.00 | Fair | CLR | 64.8 | 64.8 | 100% | 29.86 | 0.0 | |||||||
| 05 | 06:15 | S 5 | 10.00 | Fair | CLR | 64.8 | 64.8 | 100% | 29.85 | 0.0 | |||||||
| 05 | 05:55 | S 5 | 10.00 | A Few Clouds | FEW032 | 64.4 | 64.4 | 100% | 29.86 | 0.0 | |||||||
| 05 | 05:35 | S 3 | 10.00 | Fair | CLR | 63.7 | 63.7 | 100% | 29.86 | 0.0 | |||||||
| 05 | 05:15 | S 5 | 10.00 | A Few Clouds | FEW030 | 63.3 | 63.3 | 100% | 29.85 | 0.0 | |||||||
| 05 | 04:55 | Calm | 10.00 | Fair | CLR | 61.7 | 61.7 | 100% | 29.86 | 0.0 | |||||||
| 05 | 04:35 | Calm | 10.00 | Fair | CLR | 61.7 | 61.7 | 100% | 29.86 | 0.0 | |||||||
| Date | Time (cdt) | Wind (mph) | Vis. (mi.) | Weather | Sky Cond. | Air | Dwpt | Max. | Min. | Relative Humidity | Wind Chill (°F) | Heat Index (°F) | altimeter (in) | sea level (mb) | 1 hr | 3 hr | 6 hr |
| 6 hour | |||||||||||||||||
| Temperature (ºF) | Pressure | Precipitation (in) | |||||||||||||||